sensor_id;sensor_type;location;lat;lon;timestamp;temperature;humidity
37806;DHT22;25082;50.870;0.022;2022-12-07T00:00:03;19.60;57.70
37806;DHT22;25082;50.870;0.022;2022-12-07T00:02:29;19.60;57.70
37806;DHT22;25082;50.870;0.022;2022-12-07T00:04:56;19.60;57.70
37806;DHT22;25082;50.870;0.022;2022-12-07T00:07:21;19.60;57.70
37806;DHT22;25082;50.870;0.022;2022-12-07T00:09:47;19.60;57.60
37806;DHT22;25082;50.870;0.022;2022-12-07T00:12:13;19.60;57.70
37806;DHT22;25082;50.870;0.022;2022-12-07T00:14:39;19.50;57.60
37806;DHT22;25082;50.870;0.022;2022-12-07T00:17:04;19.50;57.60
37806;DHT22;25082;50.870;0.022;2022-12-07T00:19:30;19.50;57.60
37806;DHT22;25082;50.870;0.022;2022-12-07T00:21:56;19.50;57.60
37806;DHT22;25082;50.870;0.022;2022-12-07T00:24:21;19.50;57.40
37806;DHT22;25082;50.870;0.022;2022-12-07T00:26:47;19.50;57.50
37806;DHT22;25082;50.870;0.022;2022-12-07T00:29:19;19.50;57.40
37806;DHT22;25082;50.870;0.022;2022-12-07T00:31:46;19.50;57.60
37806;DHT22;25082;50.870;0.022;2022-12-07T00:34:18;19.50;57.60
37806;DHT22;25082;50.870;0.022;2022-12-07T00:36:44;19.50;57.70
37806;DHT22;25082;50.870;0.022;2022-12-07T00:39:09;19.40;57.40
37806;DHT22;25082;50.870;0.022;2022-12-07T00:41:35;19.40;57.40
37806;DHT22;25082;50.870;0.022;2022-12-07T00:44:01;19.40;57.30
37806;DHT22;25082;50.870;0.022;2022-12-07T00:46:28;19.40;57.30
37806;DHT22;25082;50.870;0.022;2022-12-07T00:48:55;19.40;57.20
37806;DHT22;25082;50.870;0.022;2022-12-07T00:51:22;19.40;57.90
37806;DHT22;25082;50.870;0.022;2022-12-07T00:53:48;19.30;57.30
37806;DHT22;25082;50.870;0.022;2022-12-07T00:56:22;19.40;57.30
37806;DHT22;25082;50.870;0.022;2022-12-07T00:58:59;19.30;57.20
37806;DHT22;25082;50.870;0.022;2022-12-07T01:01:27;19.30;57.30
37806;DHT22;25082;50.870;0.022;2022-12-07T01:03:53;19.30;57.20
37806;DHT22;25082;50.870;0.022;2022-12-07T01:06:21;19.30;57.30
37806;DHT22;25082;50.870;0.022;2022-12-07T01:08:47;19.30;57.30
37806;DHT22;25082;50.870;0.022;2022-12-07T01:11:19;19.30;57.30
37806;DHT22;25082;50.870;0.022;2022-12-07T01:13:45;19.20;57.00
37806;DHT22;25082;50.870;0.022;2022-12-07T01:16:14;19.30;57.10
37806;DHT22;25082;50.870;0.022;2022-12-07T01:18:40;19.20;57.00
37806;DHT22;25082;50.870;0.022;2022-12-07T01:21:10;19.30;57.10
37806;DHT22;25082;50.870;0.022;2022-12-07T01:23:36;19.20;57.10
37806;DHT22;25082;50.870;0.022;2022-12-07T01:26:05;19.20;57.10
37806;DHT22;25082;50.870;0.022;2022-12-07T01:28:32;19.20;57.00
37806;DHT22;25082;50.870;0.022;2022-12-07T01:31:19;19.20;57.00
37806;DHT22;25082;50.870;0.022;2022-12-07T01:33:47;19.20;57.00
37806;DHT22;25082;50.870;0.022;2022-12-07T01:36:26;19.10;56.90
37806;DHT22;25082;50.870;0.022;2022-12-07T01:38:56;19.10;56.90
37806;DHT22;25082;50.870;0.022;2022-12-07T01:41:24;19.10;56.90
37806;DHT22;25082;50.870;0.022;2022-12-07T01:46:34;19.10;57.00
37806;DHT22;25082;50.870;0.022;2022-12-07T01:49:00;19.10;56.80
37806;DHT22;25082;50.870;0.022;2022-12-07T01:51:27;19.10;56.90
37806;DHT22;25082;50.870;0.022;2022-12-07T01:53:53;19.10;56.80
37806;DHT22;25082;50.870;0.022;2022-12-07T01:56:23;19.00;56.70
37806;DHT22;25082;50.870;0.022;2022-12-07T01:58:51;19.00;56.90
37806;DHT22;25082;50.870;0.022;2022-12-07T02:01:18;19.00;56.80
37806;DHT22;25082;50.870;0.022;2022-12-07T02:03:44;19.00;56.80
37806;DHT22;25082;50.870;0.022;2022-12-07T02:06:13;19.00;56.80
37806;DHT22;25082;50.870;0.022;2022-12-07T02:08:42;19.00;56.80
37806;DHT22;25082;50.870;0.022;2022-12-07T02:11:08;19.00;56.80
37806;DHT22;25082;50.870;0.022;2022-12-07T02:13:36;19.00;56.80
37806;DHT22;25082;50.870;0.022;2022-12-07T02:18:48;19.00;56.80
37806;DHT22;25082;50.870;0.022;2022-12-07T02:35:22;18.90;56.60
37806;DHT22;25082;50.870;0.022;2022-12-07T02:45:44;18.90;56.50
37806;DHT22;25082;50.870;0.022;2022-12-07T02:48:14;18.80;56.50
37806;DHT22;25082;50.870;0.022;2022-12-07T02:50:48;18.80;56.50
37806;DHT22;25082;50.870;0.022;2022-12-07T02:56:06;18.80;56.60
37806;DHT22;25082;50.870;0.022;2022-12-07T03:15:46;18.80;56.40
37806;DHT22;25082;50.870;0.022;2022-12-07T03:18:17;18.80;56.50
37806;DHT22;25082;50.870;0.022;2022-12-07T03:20:46;18.70;56.40
37806;DHT22;25082;50.870;0.022;2022-12-07T03:23:16;18.70;56.30
37806;DHT22;25082;50.870;0.022;2022-12-07T03:25:47;18.70;56.30
37806;DHT22;25082;50.870;0.022;2022-12-07T03:28:17;18.70;56.30
37806;DHT22;25082;50.870;0.022;2022-12-07T03:30:51;18.70;56.30
37806;DHT22;25082;50.870;0.022;2022-12-07T03:33:31;18.70;56.40
37806;DHT22;25082;50.870;0.022;2022-12-07T03:38:53;18.70;56.30
37806;DHT22;25082;50.870;0.022;2022-12-07T03:41:31;18.70;56.20
37806;DHT22;25082;50.870;0.022;2022-12-07T03:43:58;18.60;56.20
37806;DHT22;25082;50.870;0.022;2022-12-07T03:49:32;18.60;56.20
37806;DHT22;25082;50.870;0.022;2022-12-07T03:54:39;18.60;56.30
37806;DHT22;25082;50.870;0.022;2022-12-07T03:57:07;18.60;56.20
37806;DHT22;25082;50.870;0.022;2022-12-07T03:59:33;18.60;56.30
37806;DHT22;25082;50.870;0.022;2022-12-07T04:02:04;18.60;56.20
37806;DHT22;25082;50.870;0.022;2022-12-07T04:04:31;18.60;56.20
37806;DHT22;25082;50.870;0.022;2022-12-07T04:06:57;18.60;56.20
37806;DHT22;25082;50.870;0.022;2022-12-07T04:09:23;18.60;56.10
37806;DHT22;25082;50.870;0.022;2022-12-07T04:11:48;18.60;56.20
37806;DHT22;25082;50.870;0.022;2022-12-07T04:14:15;18.60;56.10
37806;DHT22;25082;50.870;0.022;2022-12-07T04:16:49;18.50;56.00
37806;DHT22;25082;50.870;0.022;2022-12-07T04:19:16;18.50;56.10
37806;DHT22;25082;50.870;0.022;2022-12-07T04:21:43;18.50;56.00
37806;DHT22;25082;50.870;0.022;2022-12-07T04:24:09;18.50;56.10
37806;DHT22;25082;50.870;0.022;2022-12-07T04:26:35;18.50;56.10
37806;DHT22;25082;50.870;0.022;2022-12-07T04:29:00;18.50;56.10
37806;DHT22;25082;50.870;0.022;2022-12-07T04:31:26;18.50;56.20
37806;DHT22;25082;50.870;0.022;2022-12-07T04:33:52;18.50;56.10
37806;DHT22;25082;50.870;0.022;2022-12-07T04:36:18;18.50;56.00
37806;DHT22;25082;50.870;0.022;2022-12-07T04:38:45;18.50;56.00
37806;DHT22;25082;50.870;0.022;2022-12-07T04:41:11;18.50;56.00
37806;DHT22;25082;50.870;0.022;2022-12-07T04:43:37;18.50;56.00
37806;DHT22;25082;50.870;0.022;2022-12-07T04:46:03;18.40;56.00
37806;DHT22;25082;50.870;0.022;2022-12-07T04:48:28;18.40;55.90
37806;DHT22;25082;50.870;0.022;2022-12-07T04:50:54;18.40;55.90
37806;DHT22;25082;50.870;0.022;2022-12-07T04:53:20;18.50;56.50
37806;DHT22;25082;50.870;0.022;2022-12-07T04:55:45;18.50;55.90
37806;DHT22;25082;50.870;0.022;2022-12-07T04:58:12;18.40;55.90
37806;DHT22;25082;50.870;0.022;2022-12-07T05:00:39;18.40;55.90
37806;DHT22;25082;50.870;0.022;2022-12-07T05:03:05;18.40;55.90
37806;DHT22;25082;50.870;0.022;2022-12-07T05:05:30;18.40;55.90
37806;DHT22;25082;50.870;0.022;2022-12-07T05:07:56;18.40;55.80
37806;DHT22;25082;50.870;0.022;2022-12-07T05:10:22;18.40;55.80
37806;DHT22;25082;50.870;0.022;2022-12-07T05:12:48;18.40;55.80
37806;DHT22;25082;50.870;0.022;2022-12-07T05:15:14;18.40;55.80
37806;DHT22;25082;50.870;0.022;2022-12-07T05:17:40;18.40;55.80
37806;DHT22;25082;50.870;0.022;2022-12-07T05:20:06;18.30;55.70
37806;DHT22;25082;50.870;0.022;2022-12-07T05:22:32;18.30;55.70
37806;DHT22;25082;50.870;0.022;2022-12-07T05:24:58;18.30;55.70
37806;DHT22;25082;50.870;0.022;2022-12-07T05:27:24;18.30;55.70
37806;DHT22;25082;50.870;0.022;2022-12-07T05:29:50;18.30;55.80
37806;DHT22;25082;50.870;0.022;2022-12-07T05:32:16;18.30;55.70
37806;DHT22;25082;50.870;0.022;2022-12-07T05:34:42;18.30;55.70
37806;DHT22;25082;50.870;0.022;2022-12-07T05:37:07;18.30;55.80
37806;DHT22;25082;50.870;0.022;2022-12-07T05:39:33;18.30;55.80
37806;DHT22;25082;50.870;0.022;2022-12-07T05:41:59;18.30;55.70
37806;DHT22;25082;50.870;0.022;2022-12-07T05:44:45;18.30;55.70
37806;DHT22;25082;50.870;0.022;2022-12-07T05:47:12;18.30;55.80
37806;DHT22;25082;50.870;0.022;2022-12-07T05:49:38;18.30;55.70
37806;DHT22;25082;50.870;0.022;2022-12-07T05:52:04;18.20;55.70
37806;DHT22;25082;50.870;0.022;2022-12-07T05:54:30;18.30;55.70
37806;DHT22;25082;50.870;0.022;2022-12-07T05:56:56;18.30;55.80
37806;DHT22;25082;50.870;0.022;2022-12-07T05:59:22;18.20;55.60
37806;DHT22;25082;50.870;0.022;2022-12-07T06:02:01;18.20;55.70
37806;DHT22;25082;50.870;0.022;2022-12-07T06:04:31;18.20;55.70
37806;DHT22;25082;50.870;0.022;2022-12-07T06:06:57;18.20;55.70
37806;DHT22;25082;50.870;0.022;2022-12-07T06:09:24;18.20;55.70
37806;DHT22;25082;50.870;0.022;2022-12-07T06:11:50;18.20;55.70
37806;DHT22;25082;50.870;0.022;2022-12-07T06:14:34;18.20;55.60
37806;DHT22;25082;50.870;0.022;2022-12-07T06:17:00;18.20;55.70
37806;DHT22;25082;50.870;0.022;2022-12-07T06:19:26;18.20;55.60
37806;DHT22;25082;50.870;0.022;2022-12-07T06:21:52;18.20;55.70
37806;DHT22;25082;50.870;0.022;2022-12-07T06:24:18;18.20;55.70
37806;DHT22;25082;50.870;0.022;2022-12-07T06:26:44;18.10;55.70
37806;DHT22;25082;50.870;0.022;2022-12-07T06:29:10;18.10;55.60
37806;DHT22;25082;50.870;0.022;2022-12-07T06:31:37;18.10;55.60
37806;DHT22;25082;50.870;0.022;2022-12-07T06:34:05;18.10;55.70
37806;DHT22;25082;50.870;0.022;2022-12-07T06:36:32;18.10;55.60
37806;DHT22;25082;50.870;0.022;2022-12-07T06:38:57;18.10;55.60
37806;DHT22;25082;50.870;0.022;2022-12-07T06:41:23;18.10;55.70
37806;DHT22;25082;50.870;0.022;2022-12-07T06:43:50;18.10;55.60
37806;DHT22;25082;50.870;0.022;2022-12-07T06:46:16;18.10;55.60
37806;DHT22;25082;50.870;0.022;2022-12-07T06:48:43;18.10;55.60
37806;DHT22;25082;50.870;0.022;2022-12-07T06:51:09;18.10;55.60
37806;DHT22;25082;50.870;0.022;2022-12-07T06:53:35;18.10;55.60
37806;DHT22;25082;50.870;0.022;2022-12-07T06:56:02;18.10;55.60
37806;DHT22;25082;50.870;0.022;2022-12-07T06:58:28;18.00;55.50
37806;DHT22;25082;50.870;0.022;2022-12-07T07:00:54;18.10;55.60
37806;DHT22;25082;50.870;0.022;2022-12-07T07:03:20;18.10;55.60
37806;DHT22;25082;50.870;0.022;2022-12-07T07:05:46;18.00;55.60
37806;DHT22;25082;50.870;0.022;2022-12-07T07:08:12;18.00;55.60
37806;DHT22;25082;50.870;0.022;2022-12-07T07:10:38;18.00;55.60
37806;DHT22;25082;50.870;0.022;2022-12-07T07:13:05;18.00;55.50
37806;DHT22;25082;50.870;0.022;2022-12-07T07:15:31;18.00;55.60
37806;DHT22;25082;50.870;0.022;2022-12-07T07:17:58;18.00;55.60
37806;DHT22;25082;50.870;0.022;2022-12-07T07:20:24;18.00;55.50
37806;DHT22;25082;50.870;0.022;2022-12-07T07:22:50;18.00;55.60
37806;DHT22;25082;50.870;0.022;2022-12-07T07:25:16;18.00;55.60
37806;DHT22;25082;50.870;0.022;2022-12-07T07:27:41;18.00;55.50
37806;DHT22;25082;50.870;0.022;2022-12-07T07:30:08;18.00;55.60
37806;DHT22;25082;50.870;0.022;2022-12-07T07:32:34;18.00;55.60
37806;DHT22;25082;50.870;0.022;2022-12-07T07:35:00;17.90;55.50
37806;DHT22;25082;50.870;0.022;2022-12-07T07:37:26;17.90;55.50
37806;DHT22;25082;50.870;0.022;2022-12-07T07:39:52;17.90;55.50
37806;DHT22;25082;50.870;0.022;2022-12-07T07:42:17;18.00;55.60
37806;DHT22;25082;50.870;0.022;2022-12-07T07:44:43;17.90;55.50
37806;DHT22;25082;50.870;0.022;2022-12-07T07:47:09;17.90;55.50
37806;DHT22;25082;50.870;0.022;2022-12-07T07:49:35;17.90;55.50
37806;DHT22;25082;50.870;0.022;2022-12-07T07:52:00;17.90;55.50
37806;DHT22;25082;50.870;0.022;2022-12-07T07:54:26;17.90;55.50
37806;DHT22;25082;50.870;0.022;2022-12-07T07:56:52;17.90;55.50
37806;DHT22;25082;50.870;0.022;2022-12-07T07:59:18;17.90;55.50
37806;DHT22;25082;50.870;0.022;2022-12-07T08:01:44;17.90;55.50
37806;DHT22;25082;50.870;0.022;2022-12-07T08:04:10;17.90;55.50
37806;DHT22;25082;50.870;0.022;2022-12-07T08:06:36;17.90;55.50
37806;DHT22;25082;50.870;0.022;2022-12-07T08:09:02;17.90;55.60
37806;DHT22;25082;50.870;0.022;2022-12-07T08:11:30;17.90;55.60
37806;DHT22;25082;50.870;0.022;2022-12-07T08:13:56;17.90;55.60
37806;DHT22;25082;50.870;0.022;2022-12-07T08:16:22;17.90;55.60
37806;DHT22;25082;50.870;0.022;2022-12-07T08:18:47;17.90;55.70
37806;DHT22;25082;50.870;0.022;2022-12-07T08:21:14;17.90;55.70
37806;DHT22;25082;50.870;0.022;2022-12-07T08:23:41;18.00;55.80
37806;DHT22;25082;50.870;0.022;2022-12-07T08:26:09;18.00;55.80
37806;DHT22;25082;50.870;0.022;2022-12-07T08:28:36;18.00;55.80
37806;DHT22;25082;50.870;0.022;2022-12-07T08:31:08;18.00;55.70
37806;DHT22;25082;50.870;0.022;2022-12-07T08:33:35;18.10;55.80
37806;DHT22;25082;50.870;0.022;2022-12-07T08:36:07;18.10;55.80
37806;DHT22;25082;50.870;0.022;2022-12-07T08:38:36;18.10;55.80
37806;DHT22;25082;50.870;0.022;2022-12-07T08:41:02;18.10;55.80
37806;DHT22;25082;50.870;0.022;2022-12-07T08:43:28;18.10;55.80
37806;DHT22;25082;50.870;0.022;2022-12-07T08:46:11;18.20;55.90
37806;DHT22;25082;50.870;0.022;2022-12-07T08:48:43;18.20;56.00
37806;DHT22;25082;50.870;0.022;2022-12-07T08:51:10;18.20;55.90
37806;DHT22;25082;50.870;0.022;2022-12-07T08:53:37;18.20;55.90
37806;DHT22;25082;50.870;0.022;2022-12-07T08:56:05;18.20;55.90
37806;DHT22;25082;50.870;0.022;2022-12-07T08:58:32;18.30;56.00
37806;DHT22;25082;50.870;0.022;2022-12-07T09:00:59;18.30;55.90
37806;DHT22;25082;50.870;0.022;2022-12-07T09:03:24;18.30;55.90
37806;DHT22;25082;50.870;0.022;2022-12-07T09:05:50;18.30;55.90
37806;DHT22;25082;50.870;0.022;2022-12-07T09:08:16;18.30;55.90
37806;DHT22;25082;50.870;0.022;2022-12-07T09:10:42;18.30;55.90
37806;DHT22;25082;50.870;0.022;2022-12-07T09:13:08;18.40;56.00
37806;DHT22;25082;50.870;0.022;2022-12-07T09:15:33;18.40;56.00
37806;DHT22;25082;50.870;0.022;2022-12-07T09:17:59;18.40;56.50
37806;DHT22;25082;50.870;0.022;2022-12-07T09:20:25;18.40;55.90
37806;DHT22;25082;50.870;0.022;2022-12-07T09:22:51;18.40;55.90
37806;DHT22;25082;50.870;0.022;2022-12-07T09:25:16;18.40;55.90
37806;DHT22;25082;50.870;0.022;2022-12-07T09:27:42;18.50;55.90
37806;DHT22;25082;50.870;0.022;2022-12-07T09:30:08;18.50;55.90
37806;DHT22;25082;50.870;0.022;2022-12-07T09:32:34;18.50;55.90
37806;DHT22;25082;50.870;0.022;2022-12-07T09:35:00;18.50;55.90
37806;DHT22;25082;50.870;0.022;2022-12-07T09:37:26;18.50;55.80
37806;DHT22;25082;50.870;0.022;2022-12-07T09:39:51;18.60;55.90
37806;DHT22;25082;50.870;0.022;2022-12-07T09:42:33;18.60;55.90
37806;DHT22;25082;50.870;0.022;2022-12-07T09:45:00;18.60;56.00
37806;DHT22;25082;50.870;0.022;2022-12-07T09:47:27;18.60;55.90
37806;DHT22;25082;50.870;0.022;2022-12-07T09:50:03;18.60;56.00
37806;DHT22;25082;50.870;0.022;2022-12-07T09:52:30;18.70;56.10
37806;DHT22;25082;50.870;0.022;2022-12-07T09:54:56;18.70;56.00
37806;DHT22;25082;50.870;0.022;2022-12-07T09:57:28;18.70;56.10
37806;DHT22;25082;50.870;0.022;2022-12-07T09:59:57;18.70;56.10
37806;DHT22;25082;50.870;0.022;2022-12-07T10:02:41;18.80;56.20
37806;DHT22;25082;50.870;0.022;2022-12-07T10:05:16;18.80;56.20
37806;DHT22;25082;50.870;0.022;2022-12-07T10:07:44;18.80;56.20
37806;DHT22;25082;50.870;0.022;2022-12-07T10:10:29;18.80;56.20
37806;DHT22;25082;50.870;0.022;2022-12-07T10:15:49;18.80;56.20
37806;DHT22;25082;50.870;0.022;2022-12-07T10:20:46;18.90;56.40
37806;DHT22;25082;50.870;0.022;2022-12-07T10:23:17;18.90;56.40
37806;DHT22;25082;50.870;0.022;2022-12-07T10:25:45;19.00;56.50
37806;DHT22;25082;50.870;0.022;2022-12-07T10:28:17;18.90;56.80
37806;DHT22;25082;50.870;0.022;2022-12-07T10:33:37;19.00;57.40
37806;DHT22;25082;50.870;0.022;2022-12-07T10:39:13;19.00;57.80
37806;DHT22;25082;50.870;0.022;2022-12-07T10:42:15;19.00;58.30
37806;DHT22;25082;50.870;0.022;2022-12-07T10:44:41;19.00;59.10
37806;DHT22;25082;50.870;0.022;2022-12-07T10:57:52;19.20;59.20
37806;DHT22;25082;50.870;0.022;2022-12-07T11:00:23;19.20;59.30
37806;DHT22;25082;50.870;0.022;2022-12-07T11:11:44;19.20;59.50
37806;DHT22;25082;50.870;0.022;2022-12-07T11:22:13;19.30;59.60
37806;DHT22;25082;50.870;0.022;2022-12-07T11:29:58;19.30;59.60
37806;DHT22;25082;50.870;0.022;2022-12-07T11:32:54;19.40;59.80
37806;DHT22;25082;50.870;0.022;2022-12-07T11:41:06;19.50;61.10
37806;DHT22;25082;50.870;0.022;2022-12-07T11:46:17;19.50;60.90
37806;DHT22;25082;50.870;0.022;2022-12-07T11:51:57;19.40;56.60
37806;DHT22;25082;50.870;0.022;2022-12-07T11:54:32;19.40;58.10
37806;DHT22;25082;50.870;0.022;2022-12-07T11:57:04;19.40;58.60
37806;DHT22;25082;50.870;0.022;2022-12-07T11:59:39;19.40;58.70
37806;DHT22;25082;50.870;0.022;2022-12-07T12:02:14;19.50;58.90
37806;DHT22;25082;50.870;0.022;2022-12-07T12:07:21;19.50;59.10
37806;DHT22;25082;50.870;0.022;2022-12-07T12:09:52;19.60;59.20
37806;DHT22;25082;50.870;0.022;2022-12-07T12:21:26;21.40;56.10
37806;DHT22;25082;50.870;0.022;2022-12-07T12:23:46;22.70;52.90
37806;DHT22;25082;50.870;0.022;2022-12-07T12:26:29;23.80;49.90
37806;DHT22;25082;50.870;0.022;2022-12-07T12:29:02;24.10;49.20
37806;DHT22;25082;50.870;0.022;2022-12-07T12:31:36;24.40;48.30
37806;DHT22;25082;50.870;0.022;2022-12-07T12:34:32;24.50;47.50
37806;DHT22;25082;50.870;0.022;2022-12-07T12:36:58;24.20;47.80
37806;DHT22;25082;50.870;0.022;2022-12-07T12:39:24;23.60;49.00
37806;DHT22;25082;50.870;0.022;2022-12-07T12:41:52;23.10;50.40
37806;DHT22;25082;50.870;0.022;2022-12-07T12:51:50;21.80;52.00
37806;DHT22;25082;50.870;0.022;2022-12-07T13:02:37;21.00;54.50
37806;DHT22;25082;50.870;0.022;2022-12-07T13:07:49;20.70;55.20
37806;DHT22;25082;50.870;0.022;2022-12-07T13:13:03;20.60;55.90
37806;DHT22;25082;50.870;0.022;2022-12-07T13:15:39;20.50;56.20
37806;DHT22;25082;50.870;0.022;2022-12-07T13:28:49;20.50;57.00
37806;DHT22;25082;50.870;0.022;2022-12-07T13:34:01;20.50;57.40
37806;DHT22;25082;50.870;0.022;2022-12-07T13:36:31;20.50;57.40
37806;DHT22;25082;50.870;0.022;2022-12-07T13:39:20;20.40;50.60
37806;DHT22;25082;50.870;0.022;2022-12-07T13:41:58;20.40;54.00
37806;DHT22;25082;50.870;0.022;2022-12-07T13:44:27;20.40;55.30
37806;DHT22;25082;50.870;0.022;2022-12-07T13:49:46;20.40;56.20
37806;DHT22;25082;50.870;0.022;2022-12-07T13:52:21;20.30;56.40
37806;DHT22;25082;50.870;0.022;2022-12-07T13:55:05;20.30;56.70
37806;DHT22;25082;50.870;0.022;2022-12-07T13:57:35;20.30;56.80
37806;DHT22;25082;50.870;0.022;2022-12-07T14:00:13;20.30;57.00
37806;DHT22;25082;50.870;0.022;2022-12-07T14:05:39;20.30;57.20
37806;DHT22;25082;50.870;0.022;2022-12-07T14:10:54;20.30;57.40
37806;DHT22;25082;50.870;0.022;2022-12-07T14:13:33;20.30;57.40
37806;DHT22;25082;50.870;0.022;2022-12-07T14:16:01;20.30;57.60
37806;DHT22;25082;50.870;0.022;2022-12-07T14:18:37;20.30;57.70
37806;DHT22;25082;50.870;0.022;2022-12-07T14:21:22;20.30;57.70
37806;DHT22;25082;50.870;0.022;2022-12-07T14:24:19;20.30;57.70
37806;DHT22;25082;50.870;0.022;2022-12-07T14:26:48;20.30;57.70
37806;DHT22;25082;50.870;0.022;2022-12-07T14:29:32;20.20;57.60
37806;DHT22;25082;50.870;0.022;2022-12-07T14:32:15;20.30;57.70
37806;DHT22;25082;50.870;0.022;2022-12-07T14:34:42;20.20;57.70
37806;DHT22;25082;50.870;0.022;2022-12-07T14:37:17;20.20;57.70
37806;DHT22;25082;50.870;0.022;2022-12-07T14:39:43;20.10;48.80
37806;DHT22;25082;50.870;0.022;2022-12-07T14:42:09;19.80;48.50
37806;DHT22;25082;50.870;0.022;2022-12-07T14:44:35;19.80;52.30
37806;DHT22;25082;50.870;0.022;2022-12-07T14:47:01;19.70;53.20
37806;DHT22;25082;50.870;0.022;2022-12-07T14:49:26;19.80;54.30
37806;DHT22;25082;50.870;0.022;2022-12-07T14:51:52;19.80;54.40
37806;DHT22;25082;50.870;0.022;2022-12-07T14:54:20;19.80;54.60
37806;DHT22;25082;50.870;0.022;2022-12-07T14:56:46;19.90;54.80
37806;DHT22;25082;50.870;0.022;2022-12-07T14:59:17;19.90;55.00
37806;DHT22;25082;50.870;0.022;2022-12-07T15:01:44;19.90;55.20
37806;DHT22;25082;50.870;0.022;2022-12-07T15:04:10;20.00;55.70
37806;DHT22;25082;50.870;0.022;2022-12-07T15:06:35;20.00;55.70
37806;DHT22;25082;50.870;0.022;2022-12-07T15:09:01;20.00;55.80
37806;DHT22;25082;50.870;0.022;2022-12-07T15:11:28;20.00;55.80
37806;DHT22;25082;50.870;0.022;2022-12-07T15:13:53;20.00;55.90
37806;DHT22;25082;50.870;0.022;2022-12-07T15:16:37;20.00;56.00
37806;DHT22;25082;50.870;0.022;2022-12-07T15:19:05;20.00;56.10
37806;DHT22;25082;50.870;0.022;2022-12-07T15:21:31;20.00;56.20
37806;DHT22;25082;50.870;0.022;2022-12-07T15:23:56;20.00;56.20
37806;DHT22;25082;50.870;0.022;2022-12-07T15:26:22;20.00;56.30
37806;DHT22;25082;50.870;0.022;2022-12-07T15:28:48;20.00;56.40
37806;DHT22;25082;50.870;0.022;2022-12-07T15:31:15;20.10;56.50
37806;DHT22;25082;50.870;0.022;2022-12-07T15:33:42;20.10;56.40
37806;DHT22;25082;50.870;0.022;2022-12-07T15:36:08;20.00;56.50
37806;DHT22;25082;50.870;0.022;2022-12-07T15:38:34;20.00;56.60
37806;DHT22;25082;50.870;0.022;2022-12-07T15:41:00;20.00;56.80
37806;DHT22;25082;50.870;0.022;2022-12-07T15:43:26;20.10;56.80
37806;DHT22;25082;50.870;0.022;2022-12-07T15:46:10;20.00;57.30
37806;DHT22;25082;50.870;0.022;2022-12-07T15:48:36;20.00;56.70
37806;DHT22;25082;50.870;0.022;2022-12-07T15:51:06;20.00;56.70
37806;DHT22;25082;50.870;0.022;2022-12-07T15:53:32;20.00;56.80
37806;DHT22;25082;50.870;0.022;2022-12-07T15:55:59;20.00;56.80
37806;DHT22;25082;50.870;0.022;2022-12-07T15:58:24;20.10;56.80
37806;DHT22;25082;50.870;0.022;2022-12-07T16:00:50;20.10;56.90
37806;DHT22;25082;50.870;0.022;2022-12-07T16:03:16;20.00;56.90
37806;DHT22;25082;50.870;0.022;2022-12-07T16:05:43;20.10;56.90
37806;DHT22;25082;50.870;0.022;2022-12-07T16:08:13;20.10;57.00
37806;DHT22;25082;50.870;0.022;2022-12-07T16:10:39;20.10;57.00
37806;DHT22;25082;50.870;0.022;2022-12-07T16:13:09;20.10;57.10
37806;DHT22;25082;50.870;0.022;2022-12-07T16:15:38;20.00;57.10
37806;DHT22;25082;50.870;0.022;2022-12-07T16:18:04;20.10;57.10
37806;DHT22;25082;50.870;0.022;2022-12-07T16:20:30;20.10;57.10
37806;DHT22;25082;50.870;0.022;2022-12-07T16:22:56;20.00;57.00
37806;DHT22;25082;50.870;0.022;2022-12-07T16:25:21;20.10;57.10
37806;DHT22;25082;50.870;0.022;2022-12-07T16:27:47;20.10;57.10
37806;DHT22;25082;50.870;0.022;2022-12-07T16:30:14;20.00;57.00
37806;DHT22;25082;50.870;0.022;2022-12-07T16:32:41;20.00;57.00
37806;DHT22;25082;50.870;0.022;2022-12-07T16:35:08;20.10;57.10
37806;DHT22;25082;50.870;0.022;2022-12-07T16:37:34;20.00;57.10
37806;DHT22;25082;50.870;0.022;2022-12-07T16:40:00;20.10;57.10
37806;DHT22;25082;50.870;0.022;2022-12-07T16:42:25;20.10;57.10
37806;DHT22;25082;50.870;0.022;2022-12-07T16:44:52;20.10;57.20
37806;DHT22;25082;50.870;0.022;2022-12-07T16:47:18;20.10;57.10
37806;DHT22;25082;50.870;0.022;2022-12-07T16:49:44;20.10;57.00
37806;DHT22;25082;50.870;0.022;2022-12-07T16:52:10;20.10;57.00
37806;DHT22;25082;50.870;0.022;2022-12-07T16:54:36;20.10;56.90
37806;DHT22;25082;50.870;0.022;2022-12-07T16:57:02;20.10;56.90
37806;DHT22;25082;50.870;0.022;2022-12-07T16:59:28;20.10;57.10
37806;DHT22;25082;50.870;0.022;2022-12-07T17:01:53;20.20;57.10
37806;DHT22;25082;50.870;0.022;2022-12-07T17:04:19;20.20;57.00
37806;DHT22;25082;50.870;0.022;2022-12-07T17:06:45;20.20;56.90
37806;DHT22;25082;50.870;0.022;2022-12-07T17:09:10;20.20;56.90
37806;DHT22;25082;50.870;0.022;2022-12-07T17:11:37;20.20;56.90
37806;DHT22;25082;50.870;0.022;2022-12-07T17:14:03;20.20;56.90
37806;DHT22;25082;50.870;0.022;2022-12-07T17:16:47;20.20;57.00
37806;DHT22;25082;50.870;0.022;2022-12-07T17:19:15;20.10;56.90
37806;DHT22;25082;50.870;0.022;2022-12-07T17:21:42;20.20;56.90
37806;DHT22;25082;50.870;0.022;2022-12-07T17:24:10;20.10;56.80
37806;DHT22;25082;50.870;0.022;2022-12-07T17:26:36;20.20;57.40
37806;DHT22;25082;50.870;0.022;2022-12-07T17:29:06;20.20;56.90
37806;DHT22;25082;50.870;0.022;2022-12-07T17:31:34;20.20;56.90
37806;DHT22;25082;50.870;0.022;2022-12-07T17:34:00;20.20;56.80
37806;DHT22;25082;50.870;0.022;2022-12-07T17:36:28;20.20;56.90
37806;DHT22;25082;50.870;0.022;2022-12-07T17:38:54;20.20;56.90
37806;DHT22;25082;50.870;0.022;2022-12-07T17:41:26;20.20;57.00
37806;DHT22;25082;50.870;0.022;2022-12-07T17:44:21;20.20;56.90
37806;DHT22;25082;50.870;0.022;2022-12-07T17:46:49;20.20;56.90
37806;DHT22;25082;50.870;0.022;2022-12-07T17:49:20;20.20;56.90
37806;DHT22;25082;50.870;0.022;2022-12-07T17:51:46;20.20;56.90
37806;DHT22;25082;50.870;0.022;2022-12-07T17:54:30;20.20;56.90
37806;DHT22;25082;50.870;0.022;2022-12-07T17:56:56;20.20;56.90
37806;DHT22;25082;50.870;0.022;2022-12-07T17:59:22;20.20;56.90
37806;DHT22;25082;50.870;0.022;2022-12-07T18:01:48;20.20;56.90
37806;DHT22;25082;50.870;0.022;2022-12-07T18:04:14;20.20;56.90
37806;DHT22;25082;50.870;0.022;2022-12-07T18:06:40;20.20;57.00
37806;DHT22;25082;50.870;0.022;2022-12-07T18:09:06;20.20;57.10
37806;DHT22;25082;50.870;0.022;2022-12-07T18:11:32;20.20;57.10
37806;DHT22;25082;50.870;0.022;2022-12-07T18:13:58;20.20;57.10
37806;DHT22;25082;50.870;0.022;2022-12-07T18:16:26;20.30;57.20
37806;DHT22;25082;50.870;0.022;2022-12-07T18:18:52;20.20;57.20
37806;DHT22;25082;50.870;0.022;2022-12-07T18:21:23;20.30;57.20
37806;DHT22;25082;50.870;0.022;2022-12-07T18:23:53;20.20;57.20